Latest Weather Observations for North Head

IDN60801

Issued at 4:02 pm EDT Tuesday 29 November 2022 (issued every 10 minutes, with the page automatically refreshed every 10 minutes)

About weather observations | Map of weather stations | Latest weather observations for NSW | Other Formats
Station Details ID: 066197 Name: NORTH HEAD Lat: -33.82 Lon: 151.30 Height: 90.0 m
Data from the previous 72 hours. | See also: Recent months at North Head
Date/Time
EDT
Temp
°C
App
Temp
°C
Dew
Point
°C
Rel
Hum
%
Delta-T
°C
Wind Press
QNH
hPa
Press
MSL
hPa
Rain since
9am
mm
Dir  Spd
km/h
Gust
km/h
Spd
kts
Gust
kts
29/04:00pm - - - - - SSE 28 39 15 21 - - -
29/03:30pm - - - - - SSE 26 37 14 20 - - -
29/03:00pm - - - - - SSE 28 39 15 21 - - -
29/02:30pm - - - - - SSE 30 43 16 23 - - -
29/02:00pm - - - - - SSE 32 41 17 22 - - -
29/01:30pm - - - - - SSE 30 39 16 21 - - -
29/01:00pm - - - - - SSE 28 39 15 21 - - -
29/12:30pm - - - - - S 24 35 13 19 - - -
29/12:00pm - - - - - S 24 33 13 18 - - -
29/11:30am - - - - - SSE 26 35 14 19 - - -
29/11:00am - - - - - S 24 37 13 20 - - -
29/10:30am - - - - - SSW 15 28 8 15 - - -
29/10:00am - - - - - SW 15 22 8 12 - - -
29/09:30am - - - - - WSW 17 28 9 15 - - -
29/09:00am - - - - - WSW 17 28 9 15 - - -
29/08:30am - - - - - WSW 15 26 8 14 - - -
29/08:00am - - - - - W 15 26 8 14 - - -
29/07:30am - - - - - W 15 24 8 13 - - -
29/07:00am - - - - - WSW 19 28 10 15 - - -
29/06:30am - - - - - WSW 13 19 7 10 - - -
29/06:00am - - - - - W 9 11 5 6 - - -
29/05:30am - - - - - W 11 13 6 7 - - -
29/05:00am - - - - - W 9 13 5 7 - - -
29/04:30am - - - - - W 11 13 6 7 - - -
29/04:00am - - - - - W 9 11 5 6 - - -
29/03:30am - - - - - WNW 7 9 4 5 - - -
29/03:00am - - - - - WNW 7 11 4 6 - - -
29/02:30am - - - - - WNW 7 9 4 5 - - -
29/02:00am - - - - - W 7 9 4 5 - - -
29/01:30am - - - - - WNW 4 4 2 2 - - -
29/01:00am - - - - - NW 6 6 3 3 - - -
29/12:30am - - - - - NNW 6 6 3 3 - - -
29/12:00am - - - - - N 6 6 3 3 - - -
 
Date/Time
EDT
Temp
°C
App
Temp
°C
Dew
Point
°C
Rel
Hum
%
Delta-T
°C
Wind Press
QNH
hPa
Press
MSL
hPa
Rain since
9am
mm
Dir  Spd
km/h
Gust
km/h
Spd
kts
Gust
kts
28/11:30pm - - - - - NNE 4 6 2 3 - - -
28/11:00pm - - - - - NNE 6 7 3 4 - - -
28/10:30pm - - - - - NNE 6 9 3 5 - - -
28/10:00pm - - - - - NE 6 9 3 5 - - -
28/09:30pm - - - - - ENE 9 13 5 7 - - -
28/09:00pm - - - - - ENE 9 15 5 8 - - -
28/08:30pm - - - - - ENE 9 15 5 8 - - -
28/08:00pm - - - - - ENE 9 15 5 8 - - -
28/07:30pm - - - - - E 9 17 5 9 - - -
28/07:00pm - - - - - E 11 19 6 10 - - -
28/06:30pm - - - - - E 11 20 6 11 - - -
28/06:00pm - - - - - E 11 20 6 11 - - -
28/05:30pm - - - - - E 13 20 7 11 - - -
28/05:00pm - - - - - E 13 20 7 11 - - -
28/04:30pm - - - - - ESE 19 22 10 12 - - -
28/04:00pm - - - - - ESE 17 22 9 12 - - -
28/03:30pm - - - - - ESE 19 24 10 13 - - -
28/03:00pm - - - - - ESE 20 28 11 15 - - -
28/02:30pm - - - - - ESE 19 24 10 13 - - -
28/02:00pm - - - - - ESE 19 24 10 13 - - -
28/01:30pm - - - - - ESE 17 26 9 14 - - -
28/01:00pm - - - - - SE 17 22 9 12 - - -
28/12:30pm - - - - - SE 15 26 8 14 - - -
28/12:00pm - - - - - SE 15 22 8 12 - - -
28/11:30am - - - - - SSE 13 19 7 10 - - -
28/11:00am - - - - - SSE 13 20 7 11 - - -
28/10:30am - - - - - S 19 28 10 15 - - -
28/10:00am - - - - - S 15 24 8 13 - - -
28/09:30am - - - - - S 13 24 7 13 - - -
28/09:00am - - - - - S 17 24 9 13 - - -
28/08:30am - - - - - SSW 11 19 6 10 - - -
28/08:00am - - - - - SSW 9 17 5 9 - - -
28/07:30am - - - - - S 13 22 7 12 - - -
28/07:00am - - - - - SSW 9 17 5 9 - - -
28/06:30am - - - - - SSW 13 20 7 11 - - -
28/06:00am - - - - - SW 11 15 6 8 - - -
28/05:30am - - - - - SSW 15 22 8 12 - - -
28/05:00am - - - - - SSW 15 24 8 13 - - -
28/04:30am - - - - - SW 13 20 7 11 - - -
28/04:00am - - - - - SW 13 20 7 11 - - -
28/03:30am - - - - - SW 13 24 7 13 - - -
28/03:00am - - - - - SSW 9 15 5 8 - - -
28/02:30am - - - - - S 15 22 8 12 - - -
28/02:00am - - - - - S 19 28 10 15 - - -
28/01:30am - - - - - S 24 35 13 19 - - -
28/01:00am - - - - - SSE 24 37 13 20 - - -
28/12:30am - - - - - SSE 20 28 11 15 - - -
28/12:00am - - - - - S 17 30 9 16 - - -
 
Date/Time
EDT
Temp
°C
App
Temp
°C
Dew
Point
°C
Rel
Hum
%
Delta-T
°C
Wind Press
QNH
hPa
Press
MSL
hPa
Rain since
9am
mm
Dir  Spd
km/h
Gust
km/h
Spd
kts
Gust
kts
27/11:30pm - - - - - WSW 13 20 7 11 - - -
27/11:00pm - - - - - WSW 9 17 5 9 - - -
27/10:30pm - - - - - SSW 9 13 5 7 - - -
27/10:00pm - - - - - W 17 20 9 11 - - -
27/09:30pm - - - - - WNW 11 24 6 13 - - -
27/09:00pm - - - - - SSW 4 9 2 5 - - -
27/08:30pm - - - - - SW 9 11 5 6 - - -
27/08:00pm - - - - - W 26 41 14 22 - - -
27/07:48pm - - - - - WSW 24 39 13 21 - - -
27/07:30pm - - - - - NNE 15 20 8 11 - - -
27/07:00pm - - - - - NNE 17 24 9 13 - - -
27/06:30pm - - - - - NNE 19 28 10 15 - - -
27/06:00pm - - - - - NNE 13 19 7 10 - - -
27/05:30pm - - - - - NNW 19 30 10 16 - - -
27/05:00pm - - - - - NNE 19 26 10 14 - - -
27/04:30pm - - - - - NE 20 30 11 16 - - -
27/04:00pm - - - - - NNE 19 24 10 13 - - -
27/03:30pm - - - - - NE 17 26 9 14 - - -
27/03:00pm - - - - - NE 17 28 9 15 - - -
27/02:30pm - - - - - NE 17 22 9 12 - - -
27/02:00pm - - - - - NE 17 26 9 14 - - -
27/01:30pm - - - - - NE 11 17 6 9 - - -
27/01:00pm - - - - - NE 13 19 7 10 - - -
27/12:30pm - - - - - NNE 11 17 6 9 - - -
27/12:00pm - - - - - NNE 11 19 6 10 - - -
27/11:30am - - - - - NNE 11 20 6 11 - - -
27/11:00am - - - - - NNE 19 26 10 14 - - -
27/10:30am - - - - - NNE 17 24 9 13 - - -
27/10:00am - - - - - NNE 15 24 8 13 - - -
27/09:30am - - - - - NE 13 19 7 10 - - -
27/09:00am - - - - - NNE 9 15 5 8 - - -
27/08:30am - - - - - NNE 9 13 5 7 - - -
27/08:00am - - - - - N 11 15 6 8 - - -
27/07:30am - - - - - N 11 17 6 9 - - -
27/07:00am - - - - - NNE 13 20 7 11 - - -
27/06:30am - - - - - N 15 22 8 12 - - -
27/06:00am - - - - - N 13 20 7 11 - - -
27/05:30am - - - - - N 13 19 7 10 - - -
27/05:00am - - - - - NNE 15 20 8 11 - - -
27/04:30am - - - - - N 15 19 8 10 - - -
27/04:00am - - - - - N 13 20 7 11 - - -
27/03:30am - - - - - NNE 13 22 7 12 - - -
27/03:00am - - - - - N 11 19 6 10 - - -
27/02:30am - - - - - N 11 17 6 9 - - -
27/02:00am - - - - - N 9 15 5 8 - - -
27/01:30am - - - - - NNE 13 20 7 11 - - -
27/01:00am - - - - - NNE 15 22 8 12 - - -
27/12:30am - - - - - NNE 13 20 7 11 - - -
27/12:00am - - - - - N 13 19 7 10 - - -
 
Date/Time
EDT
Temp
°C
App
Temp
°C
Dew
Point
°C
Rel
Hum
%
Delta-T
°C
Wind Press
QNH
hPa
Press
MSL
hPa
Rain since
9am
mm
Dir  Spd
km/h
Gust
km/h
Spd
kts
Gust
kts
26/11:30pm - - - - - NNE 17 26 9 14 - - -
26/11:00pm - - - - - NNE 19 30 10 16 - - -
26/10:30pm - - - - - NNE 20 28 11 15 - - -
26/10:00pm - - - - - NNE 20 30 11 16 - - -
26/09:30pm - - - - - NNE 19 28 10 15 - - -
26/09:00pm - - - - - NNE 19 28 10 15 - - -
26/08:30pm - - - - - NNE 19 26 10 14 - - -
26/08:00pm - - - - - NE 17 26 9 14 - - -
26/07:30pm - - - - - NE 15 24 8 13 - - -
26/07:00pm - - - - - NE 17 30 9 16 - - -
26/06:30pm - - - - - NE 17 28 9 15 - - -
26/06:00pm - - - - - ENE 19 24 10 13 - - -
26/05:30pm - - - - - ENE 15 24 8 13 - - -
26/05:00pm - - - - - ENE 15 24 8 13 - - -
26/04:30pm - - - - - E 15 22 8 12 - - -

Other formats

Comma delimited format used in spreadsheet applications
http://www.bom.gov.au/fwo/IDN60801/IDN60801.95768.axf

JavaScript Object Notation format (JSON) in row-major order
http://www.bom.gov.au/fwo/IDN60801/IDN60801.95768.json

Data quality

Most of these data are generated automatically and are frequently updated. Quality checks on data are not normally performed. It is possible for incorrect values to appear. Refer to information at About Latest Weather Observations and please check the disclaimer before using these data.